sensor_id;sensor_type;location;lat;lon;timestamp;P1;durP1;ratioP1;P2;durP2;ratioP2
47922;SDS011;33688;44.354;9.228;2023-06-10T00:01:57;2.20;;;1.17;;
47922;SDS011;33688;44.354;9.228;2023-06-10T00:04:25;2.22;;;1.50;;
47922;SDS011;33688;44.354;9.228;2023-06-10T00:06:52;1.00;;;0.90;;
47922;SDS011;33688;44.354;9.228;2023-06-10T00:09:19;1.10;;;1.00;;
47922;SDS011;33688;44.354;9.228;2023-06-10T00:11:46;1.33;;;1.23;;
47922;SDS011;33688;44.354;9.228;2023-06-10T00:14:13;1.25;;;1.15;;
47922;SDS011;33688;44.354;9.228;2023-06-10T00:16:39;1.42;;;1.30;;
47922;SDS011;33688;44.354;9.228;2023-06-10T00:19:05;1.33;;;1.23;;
47922;SDS011;33688;44.354;9.228;2023-06-10T00:21:32;0.98;;;0.98;;
47922;SDS011;33688;44.354;9.228;2023-06-10T00:24:05;1.80;;;1.33;;
47922;SDS011;33688;44.354;9.228;2023-06-10T00:26:37;2.60;;;1.50;;
47922;SDS011;33688;44.354;9.228;2023-06-10T00:29:04;1.45;;;1.23;;
47922;SDS011;33688;44.354;9.228;2023-06-10T00:31:31;1.15;;;1.05;;
47922;SDS011;33688;44.354;9.228;2023-06-10T00:33:57;1.40;;;1.30;;
47922;SDS011;33688;44.354;9.228;2023-06-10T00:36:24;2.03;;;1.80;;
47922;SDS011;33688;44.354;9.228;2023-06-10T00:38:50;0.80;;;0.80;;
47922;SDS011;33688;44.354;9.228;2023-06-10T00:41:15;1.17;;;1.08;;
47922;SDS011;33688;44.354;9.228;2023-06-10T00:43:41;1.20;;;1.10;;
47922;SDS011;33688;44.354;9.228;2023-06-10T00:46:07;1.42;;;1.25;;
47922;SDS011;33688;44.354;9.228;2023-06-10T00:48:33;1.48;;;1.17;;
47922;SDS011;33688;44.354;9.228;2023-06-10T00:51:00;1.23;;;1.00;;
47922;SDS011;33688;44.354;9.228;2023-06-10T00:53:26;1.55;;;1.02;;
47922;SDS011;33688;44.354;9.228;2023-06-10T00:55:53;1.13;;;1.02;;
47922;SDS011;33688;44.354;9.228;2023-06-10T01:01:11;1.58;;;1.33;;
47922;SDS011;33688;44.354;9.228;2023-06-10T01:03:37;0.80;;;0.80;;
47922;SDS011;33688;44.354;9.228;2023-06-10T01:15:14;1.40;;;1.08;;
47922;SDS011;33688;44.354;9.228;2023-06-10T01:17:57;2.33;;;1.20;;
47922;SDS011;33688;44.354;9.228;2023-06-10T01:20:34;1.00;;;0.75;;
47922;SDS011;33688;44.354;9.228;2023-06-10T01:23:07;0.98;;;0.77;;
47922;SDS011;33688;44.354;9.228;2023-06-10T01:25:34;1.05;;;0.95;;
47922;SDS011;33688;44.354;9.228;2023-06-10T01:28:17;1.35;;;1.10;;
47922;SDS011;33688;44.354;9.228;2023-06-10T01:33:47;1.08;;;0.90;;
47922;SDS011;33688;44.354;9.228;2023-06-10T01:36:17;1.08;;;0.95;;
47922;SDS011;33688;44.354;9.228;2023-06-10T01:38:48;1.80;;;1.33;;
47922;SDS011;33688;44.354;9.228;2023-06-10T01:41:18;1.15;;;0.93;;
47922;SDS011;33688;44.354;9.228;2023-06-10T01:43:46;0.93;;;0.93;;
47922;SDS011;33688;44.354;9.228;2023-06-10T01:46:14;0.80;;;0.80;;
47922;SDS011;33688;44.354;9.228;2023-06-10T01:48:45;1.60;;;1.13;;
47922;SDS011;33688;44.354;9.228;2023-06-10T01:51:12;1.05;;;1.00;;
47922;SDS011;33688;44.354;9.228;2023-06-10T01:53:37;1.10;;;1.10;;
47922;SDS011;33688;44.354;9.228;2023-06-10T01:56:03;0.80;;;0.80;;
47922;SDS011;33688;44.354;9.228;2023-06-10T01:58:29;1.23;;;1.13;;
47922;SDS011;33688;44.354;9.228;2023-06-10T02:00:55;1.30;;;1.13;;
47922;SDS011;33688;44.354;9.228;2023-06-10T02:03:22;1.35;;;1.10;;
47922;SDS011;33688;44.354;9.228;2023-06-10T02:05:48;1.08;;;0.98;;
47922;SDS011;33688;44.354;9.228;2023-06-10T02:08:15;2.65;;;1.27;;
47922;SDS011;33688;44.354;9.228;2023-06-10T02:10:40;1.23;;;1.13;;
47922;SDS011;33688;44.354;9.228;2023-06-10T02:13:06;1.48;;;1.15;;
47922;SDS011;33688;44.354;9.228;2023-06-10T02:15:32;0.98;;;0.88;;
47922;SDS011;33688;44.354;9.228;2023-06-10T02:17:59;1.10;;;1.00;;
47922;SDS011;33688;44.354;9.228;2023-06-10T02:20:25;1.00;;;1.00;;
47922;SDS011;33688;44.354;9.228;2023-06-10T02:22:52;0.90;;;0.90;;
47922;SDS011;33688;44.354;9.228;2023-06-10T02:25:18;1.15;;;1.00;;
47922;SDS011;33688;44.354;9.228;2023-06-10T02:30:34;1.70;;;1.23;;
47922;SDS011;33688;44.354;9.228;2023-06-10T02:33:00;1.30;;;1.10;;
47922;SDS011;33688;44.354;9.228;2023-06-10T02:35:27;1.30;;;1.20;;
47922;SDS011;33688;44.354;9.228;2023-06-10T02:40:38;0.98;;;0.88;;
47922;SDS011;33688;44.354;9.228;2023-06-10T02:43:04;1.50;;;1.10;;
47922;SDS011;33688;44.354;9.228;2023-06-10T02:45:31;0.77;;;0.77;;
47922;SDS011;33688;44.354;9.228;2023-06-10T02:47:58;1.70;;;0.98;;
47922;SDS011;33688;44.354;9.228;2023-06-10T02:50:24;1.10;;;1.00;;
47922;SDS011;33688;44.354;9.228;2023-06-10T02:53:00;1.35;;;0.90;;
47922;SDS011;33688;44.354;9.228;2023-06-10T02:55:26;1.80;;;1.10;;
47922;SDS011;33688;44.354;9.228;2023-06-10T02:57:57;1.35;;;1.05;;
47922;SDS011;33688;44.354;9.228;2023-06-10T03:00:24;1.05;;;1.00;;
47922;SDS011;33688;44.354;9.228;2023-06-10T03:02:50;0.90;;;0.90;;
47922;SDS011;33688;44.354;9.228;2023-06-10T03:05:20;0.75;;;0.75;;
47922;SDS011;33688;44.354;9.228;2023-06-10T03:07:52;1.23;;;1.08;;
47922;SDS011;33688;44.354;9.228;2023-06-10T03:10:18;1.17;;;1.00;;
47922;SDS011;33688;44.354;9.228;2023-06-10T03:12:44;0.90;;;0.90;;
47922;SDS011;33688;44.354;9.228;2023-06-10T03:15:11;1.33;;;0.85;;
47922;SDS011;33688;44.354;9.228;2023-06-10T03:20:08;0.80;;;0.75;;
47922;SDS011;33688;44.354;9.228;2023-06-10T03:22:38;1.42;;;1.08;;
47922;SDS011;33688;44.354;9.228;2023-06-10T03:25:07;1.58;;;1.17;;
47922;SDS011;33688;44.354;9.228;2023-06-10T03:27:41;0.80;;;0.70;;
47922;SDS011;33688;44.354;9.228;2023-06-10T03:30:08;2.58;;;0.70;;
47922;SDS011;33688;44.354;9.228;2023-06-10T03:32:37;0.80;;;0.80;;
47922;SDS011;33688;44.354;9.228;2023-06-10T03:35:04;1.35;;;0.80;;
47922;SDS011;33688;44.354;9.228;2023-06-10T03:37:32;1.38;;;0.98;;
47922;SDS011;33688;44.354;9.228;2023-06-10T03:39:58;0.80;;;0.80;;
47922;SDS011;33688;44.354;9.228;2023-06-10T03:42:24;0.88;;;0.85;;
47922;SDS011;33688;44.354;9.228;2023-06-10T03:44:50;0.90;;;0.90;;
47922;SDS011;33688;44.354;9.228;2023-06-10T03:47:16;1.10;;;1.00;;
47922;SDS011;33688;44.354;9.228;2023-06-10T03:49:44;1.15;;;1.05;;
47922;SDS011;33688;44.354;9.228;2023-06-10T03:52:10;1.05;;;0.90;;
47922;SDS011;33688;44.354;9.228;2023-06-10T03:54:38;0.90;;;0.63;;
47922;SDS011;33688;44.354;9.228;2023-06-10T03:57:04;1.00;;;0.93;;
47922;SDS011;33688;44.354;9.228;2023-06-10T03:59:32;0.88;;;0.80;;
47922;SDS011;33688;44.354;9.228;2023-06-10T04:04:47;1.80;;;0.98;;
47922;SDS011;33688;44.354;9.228;2023-06-10T04:07:13;1.33;;;0.82;;
47922;SDS011;33688;44.354;9.228;2023-06-10T04:09:39;2.28;;;1.42;;
47922;SDS011;33688;44.354;9.228;2023-06-10T04:12:04;1.23;;;1.02;;
47922;SDS011;33688;44.354;9.228;2023-06-10T04:14:36;1.20;;;1.10;;
47922;SDS011;33688;44.354;9.228;2023-06-10T04:17:04;0.88;;;0.82;;
47922;SDS011;33688;44.354;9.228;2023-06-10T04:19:33;1.17;;;0.77;;
47922;SDS011;33688;44.354;9.228;2023-06-10T04:22:04;1.05;;;0.70;;
47922;SDS011;33688;44.354;9.228;2023-06-10T04:24:31;1.13;;;0.95;;
47922;SDS011;33688;44.354;9.228;2023-06-10T04:26:58;0.98;;;0.90;;
47922;SDS011;33688;44.354;9.228;2023-06-10T04:29:24;0.90;;;0.80;;
47922;SDS011;33688;44.354;9.228;2023-06-10T04:31:51;0.77;;;0.60;;
47922;SDS011;33688;44.354;9.228;2023-06-10T04:34:18;1.30;;;0.70;;
47922;SDS011;33688;44.354;9.228;2023-06-10T04:36:47;0.85;;;0.82;;
47922;SDS011;33688;44.354;9.228;2023-06-10T04:39:13;0.80;;;0.80;;
47922;SDS011;33688;44.354;9.228;2023-06-10T04:41:39;1.08;;;0.98;;
47922;SDS011;33688;44.354;9.228;2023-06-10T04:44:05;0.88;;;0.70;;
47922;SDS011;33688;44.354;9.228;2023-06-10T04:46:32;0.75;;;0.75;;
47922;SDS011;33688;44.354;9.228;2023-06-10T04:48:58;0.85;;;0.85;;
47922;SDS011;33688;44.354;9.228;2023-06-10T04:51:24;1.58;;;0.98;;
47922;SDS011;33688;44.354;9.228;2023-06-10T04:53:51;1.90;;;0.80;;
47922;SDS011;33688;44.354;9.228;2023-06-10T04:56:17;1.60;;;0.93;;
47922;SDS011;33688;44.354;9.228;2023-06-10T04:58:43;0.80;;;0.80;;
47922;SDS011;33688;44.354;9.228;2023-06-10T05:01:08;0.73;;;0.73;;
47922;SDS011;33688;44.354;9.228;2023-06-10T05:03:34;1.35;;;1.00;;
47922;SDS011;33688;44.354;9.228;2023-06-10T05:06:00;0.88;;;0.88;;
47922;SDS011;33688;44.354;9.228;2023-06-10T05:08:26;0.70;;;0.70;;
47922;SDS011;33688;44.354;9.228;2023-06-10T05:10:52;0.82;;;0.80;;
47922;SDS011;33688;44.354;9.228;2023-06-10T05:13:18;1.20;;;0.70;;
47922;SDS011;33688;44.354;9.228;2023-06-10T05:15:44;1.20;;;0.82;;
47922;SDS011;33688;44.354;9.228;2023-06-10T05:18:11;1.08;;;0.98;;
47922;SDS011;33688;44.354;9.228;2023-06-10T05:20:39;0.70;;;0.70;;
47922;SDS011;33688;44.354;9.228;2023-06-10T05:23:06;1.02;;;0.90;;
47922;SDS011;33688;44.354;9.228;2023-06-10T05:25:33;1.00;;;0.80;;
47922;SDS011;33688;44.354;9.228;2023-06-10T05:27:59;0.80;;;0.80;;
47922;SDS011;33688;44.354;9.228;2023-06-10T05:30:25;1.08;;;0.65;;
47922;SDS011;33688;44.354;9.228;2023-06-10T05:32:52;1.15;;;0.63;;
47922;SDS011;33688;44.354;9.228;2023-06-10T05:35:19;1.05;;;0.90;;
47922;SDS011;33688;44.354;9.228;2023-06-10T05:37:44;0.77;;;0.68;;
47922;SDS011;33688;44.354;9.228;2023-06-10T05:40:10;1.25;;;1.15;;
47922;SDS011;33688;44.354;9.228;2023-06-10T05:42:36;0.85;;;0.70;;
47922;SDS011;33688;44.354;9.228;2023-06-10T05:45:03;1.40;;;0.98;;
47922;SDS011;33688;44.354;9.228;2023-06-10T05:47:30;1.45;;;0.82;;
47922;SDS011;33688;44.354;9.228;2023-06-10T05:49:56;2.80;;;0.80;;
47922;SDS011;33688;44.354;9.228;2023-06-10T05:52:22;0.70;;;0.70;;
47922;SDS011;33688;44.354;9.228;2023-06-10T05:54:48;0.98;;;0.90;;
47922;SDS011;33688;44.354;9.228;2023-06-10T05:57:15;1.20;;;1.08;;
47922;SDS011;33688;44.354;9.228;2023-06-10T05:59:41;0.88;;;0.88;;
47922;SDS011;33688;44.354;9.228;2023-06-10T06:02:07;0.93;;;0.80;;
47922;SDS011;33688;44.354;9.228;2023-06-10T06:04:33;0.80;;;0.70;;
47922;SDS011;33688;44.354;9.228;2023-06-10T06:06:59;1.17;;;1.00;;
47922;SDS011;33688;44.354;9.228;2023-06-10T06:09:25;0.90;;;0.90;;
47922;SDS011;33688;44.354;9.228;2023-06-10T06:11:51;1.00;;;0.80;;
47922;SDS011;33688;44.354;9.228;2023-06-10T06:14:18;1.05;;;0.93;;
47922;SDS011;33688;44.354;9.228;2023-06-10T06:16:43;0.80;;;0.80;;
47922;SDS011;33688;44.354;9.228;2023-06-10T06:21:53;1.70;;;0.70;;
47922;SDS011;33688;44.354;9.228;2023-06-10T06:24:19;0.88;;;0.88;;
47922;SDS011;33688;44.354;9.228;2023-06-10T06:26:45;0.80;;;0.80;;
47922;SDS011;33688;44.354;9.228;2023-06-10T06:29:11;1.25;;;0.82;;
47922;SDS011;33688;44.354;9.228;2023-06-10T06:31:36;0.68;;;0.68;;
47922;SDS011;33688;44.354;9.228;2023-06-10T06:34:02;0.93;;;0.88;;
47922;SDS011;33688;44.354;9.228;2023-06-10T06:36:28;0.95;;;0.82;;
47922;SDS011;33688;44.354;9.228;2023-06-10T06:38:54;1.00;;;0.98;;
47922;SDS011;33688;44.354;9.228;2023-06-10T06:41:21;0.80;;;0.80;;
47922;SDS011;33688;44.354;9.228;2023-06-10T06:43:47;0.93;;;0.85;;
47922;SDS011;33688;44.354;9.228;2023-06-10T06:46:36;1.08;;;0.95;;
47922;SDS011;33688;44.354;9.228;2023-06-10T06:49:02;1.92;;;1.20;;
47922;SDS011;33688;44.354;9.228;2023-06-10T06:51:28;1.13;;;0.70;;
47922;SDS011;33688;44.354;9.228;2023-06-10T06:53:54;1.00;;;0.90;;
47922;SDS011;33688;44.354;9.228;2023-06-10T06:56:24;1.10;;;1.00;;
47922;SDS011;33688;44.354;9.228;2023-06-10T06:58:52;1.20;;;0.88;;
47922;SDS011;33688;44.354;9.228;2023-06-10T07:01:18;1.05;;;0.95;;
47922;SDS011;33688;44.354;9.228;2023-06-10T07:03:43;1.98;;;0.95;;
47922;SDS011;33688;44.354;9.228;2023-06-10T07:06:10;2.97;;;1.67;;
47922;SDS011;33688;44.354;9.228;2023-06-10T07:08:38;1.02;;;0.93;;
47922;SDS011;33688;44.354;9.228;2023-06-10T07:11:04;1.92;;;1.30;;
47922;SDS011;33688;44.354;9.228;2023-06-10T07:13:31;1.52;;;0.90;;
47922;SDS011;33688;44.354;9.228;2023-06-10T07:15:57;2.38;;;0.88;;
47922;SDS011;33688;44.354;9.228;2023-06-10T07:18:23;1.23;;;0.82;;
47922;SDS011;33688;44.354;9.228;2023-06-10T07:20:48;2.30;;;1.15;;
47922;SDS011;33688;44.354;9.228;2023-06-10T07:23:14;1.35;;;1.00;;
47922;SDS011;33688;44.354;9.228;2023-06-10T07:25:41;1.77;;;1.40;;
47922;SDS011;33688;44.354;9.228;2023-06-10T07:28:07;1.13;;;0.70;;
47922;SDS011;33688;44.354;9.228;2023-06-10T07:30:33;0.80;;;0.80;;
47922;SDS011;33688;44.354;9.228;2023-06-10T07:32:58;3.38;;;1.27;;
47922;SDS011;33688;44.354;9.228;2023-06-10T07:35:24;1.20;;;1.05;;
47922;SDS011;33688;44.354;9.228;2023-06-10T07:37:52;1.40;;;1.20;;
47922;SDS011;33688;44.354;9.228;2023-06-10T07:40:18;3.03;;;0.95;;
47922;SDS011;33688;44.354;9.228;2023-06-10T07:42:44;1.20;;;1.10;;
47922;SDS011;33688;44.354;9.228;2023-06-10T07:45:12;1.33;;;0.88;;
47922;SDS011;33688;44.354;9.228;2023-06-10T07:47:37;1.33;;;1.00;;
47922;SDS011;33688;44.354;9.228;2023-06-10T07:50:03;1.30;;;1.00;;
47922;SDS011;33688;44.354;9.228;2023-06-10T07:52:29;1.05;;;0.90;;
47922;SDS011;33688;44.354;9.228;2023-06-10T07:54:56;2.45;;;1.35;;
47922;SDS011;33688;44.354;9.228;2023-06-10T07:57:22;1.10;;;1.00;;
47922;SDS011;33688;44.354;9.228;2023-06-10T07:59:47;1.05;;;0.95;;
47922;SDS011;33688;44.354;9.228;2023-06-10T08:02:15;1.20;;;1.05;;
47922;SDS011;33688;44.354;9.228;2023-06-10T08:04:40;2.25;;;1.20;;
47922;SDS011;33688;44.354;9.228;2023-06-10T08:07:06;1.33;;;1.23;;
47922;SDS011;33688;44.354;9.228;2023-06-10T08:09:32;1.23;;;1.05;;
47922;SDS011;33688;44.354;9.228;2023-06-10T08:11:58;2.33;;;1.40;;
47922;SDS011;33688;44.354;9.228;2023-06-10T08:14:23;1.95;;;1.40;;
47922;SDS011;33688;44.354;9.228;2023-06-10T08:16:49;1.42;;;1.13;;
47922;SDS011;33688;44.354;9.228;2023-06-10T08:19:15;2.30;;;1.30;;
47922;SDS011;33688;44.354;9.228;2023-06-10T08:21:42;2.67;;;1.05;;
47922;SDS011;33688;44.354;9.228;2023-06-10T08:24:08;2.83;;;1.73;;
47922;SDS011;33688;44.354;9.228;2023-06-10T08:26:35;1.88;;;1.38;;
47922;SDS011;33688;44.354;9.228;2023-06-10T08:29:01;1.60;;;1.20;;
47922;SDS011;33688;44.354;9.228;2023-06-10T08:31:26;2.67;;;1.55;;
47922;SDS011;33688;44.354;9.228;2023-06-10T08:33:52;2.85;;;1.40;;
47922;SDS011;33688;44.354;9.228;2023-06-10T08:36:19;1.92;;;1.15;;
47922;SDS011;33688;44.354;9.228;2023-06-10T08:38:45;2.05;;;1.30;;
47922;SDS011;33688;44.354;9.228;2023-06-10T08:41:12;2.90;;;1.50;;
47922;SDS011;33688;44.354;9.228;2023-06-10T08:43:43;3.13;;;1.67;;
47922;SDS011;33688;44.354;9.228;2023-06-10T08:46:20;3.13;;;1.33;;
47922;SDS011;33688;44.354;9.228;2023-06-10T08:48:46;1.73;;;1.40;;
47922;SDS011;33688;44.354;9.228;2023-06-10T08:51:19;2.40;;;1.60;;
47922;SDS011;33688;44.354;9.228;2023-06-10T08:53:52;2.10;;;1.63;;
47922;SDS011;33688;44.354;9.228;2023-06-10T08:56:31;2.95;;;1.52;;
47922;SDS011;33688;44.354;9.228;2023-06-10T08:59:01;2.45;;;1.50;;
47922;SDS011;33688;44.354;9.228;2023-06-10T09:01:27;4.65;;;1.33;;
47922;SDS011;33688;44.354;9.228;2023-06-10T09:03:54;3.00;;;1.27;;
47922;SDS011;33688;44.354;9.228;2023-06-10T09:06:22;3.13;;;1.80;;
47922;SDS011;33688;44.354;9.228;2023-06-10T09:08:48;2.05;;;1.63;;
47922;SDS011;33688;44.354;9.228;2023-06-10T09:11:15;2.25;;;1.20;;
47922;SDS011;33688;44.354;9.228;2023-06-10T09:13:41;3.20;;;1.40;;
47922;SDS011;33688;44.354;9.228;2023-06-10T09:16:06;1.60;;;1.20;;
47922;SDS011;33688;44.354;9.228;2023-06-10T09:18:32;2.72;;;1.30;;
47922;SDS011;33688;44.354;9.228;2023-06-10T09:20:59;2.67;;;1.70;;
47922;SDS011;33688;44.354;9.228;2023-06-10T09:23:26;3.55;;;1.80;;
47922;SDS011;33688;44.354;9.228;2023-06-10T09:25:58;4.38;;;1.70;;
47922;SDS011;33688;44.354;9.228;2023-06-10T09:28:24;1.42;;;1.08;;
47922;SDS011;33688;44.354;9.228;2023-06-10T09:30:50;2.85;;;1.55;;
47922;SDS011;33688;44.354;9.228;2023-06-10T09:33:29;3.00;;;1.80;;
47922;SDS011;33688;44.354;9.228;2023-06-10T09:35:55;1.60;;;1.30;;
47922;SDS011;33688;44.354;9.228;2023-06-10T09:38:29;4.70;;;2.03;;
47922;SDS011;33688;44.354;9.228;2023-06-10T09:40:58;3.05;;;1.73;;
47922;SDS011;33688;44.354;9.228;2023-06-10T09:43:42;3.30;;;1.60;;
47922;SDS011;33688;44.354;9.228;2023-06-10T09:46:18;3.75;;;1.63;;
47922;SDS011;33688;44.354;9.228;2023-06-10T09:48:45;2.88;;;1.48;;
47922;SDS011;33688;44.354;9.228;2023-06-10T09:51:14;2.55;;;1.40;;
47922;SDS011;33688;44.354;9.228;2023-06-10T09:53:42;3.35;;;2.00;;
47922;SDS011;33688;44.354;9.228;2023-06-10T09:56:08;2.15;;;1.55;;
47922;SDS011;33688;44.354;9.228;2023-06-10T09:58:37;2.55;;;1.70;;
47922;SDS011;33688;44.354;9.228;2023-06-10T10:01:05;3.78;;;1.52;;
47922;SDS011;33688;44.354;9.228;2023-06-10T10:03:55;2.20;;;1.35;;
47922;SDS011;33688;44.354;9.228;2023-06-10T10:06:21;2.22;;;1.48;;
47922;SDS011;33688;44.354;9.228;2023-06-10T10:08:50;2.75;;;1.50;;
47922;SDS011;33688;44.354;9.228;2023-06-10T10:11:19;2.55;;;1.25;;
47922;SDS011;33688;44.354;9.228;2023-06-10T10:13:48;3.17;;;1.90;;
47922;SDS011;33688;44.354;9.228;2023-06-10T10:16:23;2.05;;;1.40;;
47922;SDS011;33688;44.354;9.228;2023-06-10T10:19:04;2.53;;;1.52;;
47922;SDS011;33688;44.354;9.228;2023-06-10T10:21:37;1.85;;;1.35;;
47922;SDS011;33688;44.354;9.228;2023-06-10T10:24:10;2.20;;;1.50;;
47922;SDS011;33688;44.354;9.228;2023-06-10T10:26:40;3.05;;;1.30;;
47922;SDS011;33688;44.354;9.228;2023-06-10T10:32:00;2.03;;;1.40;;
47922;SDS011;33688;44.354;9.228;2023-06-10T10:34:33;2.50;;;1.40;;
47922;SDS011;33688;44.354;9.228;2023-06-10T10:39:56;1.65;;;1.33;;
47922;SDS011;33688;44.354;9.228;2023-06-10T10:42:23;2.92;;;1.35;;
47922;SDS011;33688;44.354;9.228;2023-06-10T10:44:49;2.33;;;1.42;;
47922;SDS011;33688;44.354;9.228;2023-06-10T10:47:17;5.20;;;2.00;;
47922;SDS011;33688;44.354;9.228;2023-06-10T10:49:47;2.85;;;1.77;;
47922;SDS011;33688;44.354;9.228;2023-06-10T10:52:16;3.35;;;1.50;;
47922;SDS011;33688;44.354;9.228;2023-06-10T10:54:46;3.25;;;1.70;;
47922;SDS011;33688;44.354;9.228;2023-06-10T10:57:16;1.85;;;1.40;;
47922;SDS011;33688;44.354;9.228;2023-06-10T11:02:59;3.70;;;2.15;;
47922;SDS011;33688;44.354;9.228;2023-06-10T11:05:10;1.75;;;1.38;;
47922;SDS011;33688;44.354;9.228;2023-06-10T11:07:39;2.33;;;1.20;;
47922;SDS011;33688;44.354;9.228;2023-06-10T11:15:44;2.10;;;1.35;;
47922;SDS011;33688;44.354;9.228;2023-06-10T11:20:58;1.60;;;1.50;;
47922;SDS011;33688;44.354;9.228;2023-06-10T11:31:26;2.75;;;1.55;;
47922;SDS011;33688;44.354;9.228;2023-06-10T11:33:54;1.20;;;1.13;;
47922;SDS011;33688;44.354;9.228;2023-06-10T11:36:24;1.70;;;1.30;;
47922;SDS011;33688;44.354;9.228;2023-06-10T11:39:01;1.83;;;1.27;;
47922;SDS011;33688;44.354;9.228;2023-06-10T11:41:29;1.95;;;1.52;;
47922;SDS011;33688;44.354;9.228;2023-06-10T11:44:07;1.90;;;1.52;;
47922;SDS011;33688;44.354;9.228;2023-06-10T11:46:38;1.73;;;1.20;;
47922;SDS011;33688;44.354;9.228;2023-06-10T11:49:07;1.35;;;1.00;;
47922;SDS011;33688;44.354;9.228;2023-06-10T11:54:30;1.45;;;1.35;;
47922;SDS011;33688;44.354;9.228;2023-06-10T11:56:59;1.80;;;1.25;;
47922;SDS011;33688;44.354;9.228;2023-06-10T11:59:29;1.30;;;1.05;;
47922;SDS011;33688;44.354;9.228;2023-06-10T12:01:57;1.30;;;1.20;;
47922;SDS011;33688;44.354;9.228;2023-06-10T12:04:24;1.25;;;1.17;;
47922;SDS011;33688;44.354;9.228;2023-06-10T12:06:52;1.38;;;1.02;;
47922;SDS011;33688;44.354;9.228;2023-06-10T12:09:26;1.38;;;1.27;;
47922;SDS011;33688;44.354;9.228;2023-06-10T12:19:57;1.20;;;1.10;;
47922;SDS011;33688;44.354;9.228;2023-06-10T12:22:25;1.15;;;1.05;;
47922;SDS011;33688;44.354;9.228;2023-06-10T12:24:58;1.33;;;1.23;;
47922;SDS011;33688;44.354;9.228;2023-06-10T12:27:26;1.45;;;1.20;;
47922;SDS011;33688;44.354;9.228;2023-06-10T12:29:55;1.45;;;1.02;;
47922;SDS011;33688;44.354;9.228;2023-06-10T12:32:45;2.45;;;1.27;;
47922;SDS011;33688;44.354;9.228;2023-06-10T12:35:12;2.00;;;1.13;;
47922;SDS011;33688;44.354;9.228;2023-06-10T12:37:53;1.90;;;1.25;;
47922;SDS011;33688;44.354;9.228;2023-06-10T12:40:49;1.88;;;1.27;;
47922;SDS011;33688;44.354;9.228;2023-06-10T12:43:21;1.58;;;1.02;;
47922;SDS011;33688;44.354;9.228;2023-06-10T12:45:51;1.00;;;1.00;;
47922;SDS011;33688;44.354;9.228;2023-06-10T12:48:21;1.13;;;0.98;;
47922;SDS011;33688;44.354;9.228;2023-06-10T12:50:53;2.42;;;1.35;;
47922;SDS011;33688;44.354;9.228;2023-06-10T12:53:23;1.23;;;1.00;;
47922;SDS011;33688;44.354;9.228;2023-06-10T12:55:52;1.65;;;1.10;;
47922;SDS011;33688;44.354;9.228;2023-06-10T12:58:21;1.33;;;0.95;;
47922;SDS011;33688;44.354;9.228;2023-06-10T13:00:48;2.03;;;1.23;;
47922;SDS011;33688;44.354;9.228;2023-06-10T13:03:17;1.25;;;1.15;;
47922;SDS011;33688;44.354;9.228;2023-06-10T13:05:43;1.40;;;1.10;;
47922;SDS011;33688;44.354;9.228;2023-06-10T13:08:09;1.15;;;1.00;;
47922;SDS011;33688;44.354;9.228;2023-06-10T13:10:35;1.38;;;1.13;;
47922;SDS011;33688;44.354;9.228;2023-06-10T13:13:02;1.08;;;1.00;;
47922;SDS011;33688;44.354;9.228;2023-06-10T13:15:33;1.25;;;1.10;;
47922;SDS011;33688;44.354;9.228;2023-06-10T13:18:04;1.25;;;1.02;;
47922;SDS011;33688;44.354;9.228;2023-06-10T13:20:30;0.80;;;0.80;;
47922;SDS011;33688;44.354;9.228;2023-06-10T13:22:56;1.95;;;1.15;;
47922;SDS011;33688;44.354;9.228;2023-06-10T13:25:23;1.27;;;1.17;;
47922;SDS011;33688;44.354;9.228;2023-06-10T13:27:49;1.77;;;1.00;;
47922;SDS011;33688;44.354;9.228;2023-06-10T13:30:15;1.35;;;1.00;;
47922;SDS011;33688;44.354;9.228;2023-06-10T13:32:41;1.42;;;1.15;;
47922;SDS011;33688;44.354;9.228;2023-06-10T13:35:07;0.98;;;0.98;;
47922;SDS011;33688;44.354;9.228;2023-06-10T13:37:34;1.00;;;0.90;;
47922;SDS011;33688;44.354;9.228;2023-06-10T13:40:02;1.10;;;0.80;;
47922;SDS011;33688;44.354;9.228;2023-06-10T13:42:28;2.17;;;1.02;;
47922;SDS011;33688;44.354;9.228;2023-06-10T13:44:55;1.20;;;1.10;;
47922;SDS011;33688;44.354;9.228;2023-06-10T13:47:21;1.15;;;0.85;;
47922;SDS011;33688;44.354;9.228;2023-06-10T13:49:48;1.23;;;1.05;;
47922;SDS011;33688;44.354;9.228;2023-06-10T13:52:14;2.33;;;1.10;;
47922;SDS011;33688;44.354;9.228;2023-06-10T13:54:40;1.17;;;0.98;;
47922;SDS011;33688;44.354;9.228;2023-06-10T13:57:07;0.90;;;0.88;;
47922;SDS011;33688;44.354;9.228;2023-06-10T13:59:35;0.90;;;0.90;;
47922;SDS011;33688;44.354;9.228;2023-06-10T14:02:00;1.40;;;1.20;;
47922;SDS011;33688;44.354;9.228;2023-06-10T14:04:27;1.02;;;0.98;;
47922;SDS011;33688;44.354;9.228;2023-06-10T14:06:53;1.15;;;1.08;;
47922;SDS011;33688;44.354;9.228;2023-06-10T14:09:19;1.25;;;1.00;;
47922;SDS011;33688;44.354;9.228;2023-06-10T14:11:48;1.02;;;1.02;;
47922;SDS011;33688;44.354;9.228;2023-06-10T14:14:14;1.73;;;1.25;;
47922;SDS011;33688;44.354;9.228;2023-06-10T14:16:40;1.92;;;1.10;;
47922;SDS011;33688;44.354;9.228;2023-06-10T14:19:05;1.20;;;1.10;;
47922;SDS011;33688;44.354;9.228;2023-06-10T14:21:33;1.60;;;1.17;;
47922;SDS011;33688;44.354;9.228;2023-06-10T14:24:00;1.85;;;1.10;;
47922;SDS011;33688;44.354;9.228;2023-06-10T14:26:26;1.20;;;1.10;;
47922;SDS011;33688;44.354;9.228;2023-06-10T14:28:52;1.38;;;1.27;;
47922;SDS011;33688;44.354;9.228;2023-06-10T14:31:17;1.50;;;1.38;;
47922;SDS011;33688;44.354;9.228;2023-06-10T14:33:43;1.42;;;1.20;;
47922;SDS011;33688;44.354;9.228;2023-06-10T14:36:10;2.45;;;1.40;;
47922;SDS011;33688;44.354;9.228;2023-06-10T14:38:37;1.40;;;1.10;;
47922;SDS011;33688;44.354;9.228;2023-06-10T14:41:04;1.92;;;1.27;;
47922;SDS011;33688;44.354;9.228;2023-06-10T14:43:30;1.23;;;1.10;;
47922;SDS011;33688;44.354;9.228;2023-06-10T14:45:55;1.38;;;1.17;;
47922;SDS011;33688;44.354;9.228;2023-06-10T14:48:23;1.80;;;1.20;;
47922;SDS011;33688;44.354;9.228;2023-06-10T14:50:49;1.10;;;1.00;;
47922;SDS011;33688;44.354;9.228;2023-06-10T14:53:19;1.35;;;1.15;;
47922;SDS011;33688;44.354;9.228;2023-06-10T14:55:45;1.40;;;1.15;;
47922;SDS011;33688;44.354;9.228;2023-06-10T14:58:10;1.10;;;1.00;;
47922;SDS011;33688;44.354;9.228;2023-06-10T15:00:36;1.40;;;1.30;;
47922;SDS011;33688;44.354;9.228;2023-06-10T15:03:02;2.10;;;1.17;;
47922;SDS011;33688;44.354;9.228;2023-06-10T15:05:28;1.45;;;1.20;;
47922;SDS011;33688;44.354;9.228;2023-06-10T15:07:55;2.33;;;1.30;;
47922;SDS011;33688;44.354;9.228;2023-06-10T15:10:23;1.08;;;1.00;;
47922;SDS011;33688;44.354;9.228;2023-06-10T15:12:49;1.38;;;1.27;;
47922;SDS011;33688;44.354;9.228;2023-06-10T15:15:21;1.20;;;1.10;;
47922;SDS011;33688;44.354;9.228;2023-06-10T15:17:49;2.03;;;1.20;;
47922;SDS011;33688;44.354;9.228;2023-06-10T15:20:14;1.20;;;1.10;;
47922;SDS011;33688;44.354;9.228;2023-06-10T15:22:42;1.02;;;0.90;;
47922;SDS011;33688;44.354;9.228;2023-06-10T15:25:08;1.70;;;1.17;;
47922;SDS011;33688;44.354;9.228;2023-06-10T15:27:34;1.52;;;1.00;;
47922;SDS011;33688;44.354;9.228;2023-06-10T15:30:02;1.23;;;1.00;;
47922;SDS011;33688;44.354;9.228;2023-06-10T15:32:30;1.40;;;1.13;;
47922;SDS011;33688;44.354;9.228;2023-06-10T15:34:55;1.58;;;1.02;;
47922;SDS011;33688;44.354;9.228;2023-06-10T15:37:21;1.38;;;1.27;;
47922;SDS011;33688;44.354;9.228;2023-06-10T15:39:48;1.65;;;1.00;;
47922;SDS011;33688;44.354;9.228;2023-06-10T15:42:15;1.00;;;0.88;;
47922;SDS011;33688;44.354;9.228;2023-06-10T15:44:41;1.38;;;1.00;;
47922;SDS011;33688;44.354;9.228;2023-06-10T15:49:36;1.63;;;1.27;;
47922;SDS011;33688;44.354;9.228;2023-06-10T15:52:02;1.67;;;1.20;;
47922;SDS011;33688;44.354;9.228;2023-06-10T15:54:28;1.92;;;1.00;;
47922;SDS011;33688;44.354;9.228;2023-06-10T15:56:53;1.73;;;1.30;;
47922;SDS011;33688;44.354;9.228;2023-06-10T15:59:19;2.78;;;1.10;;